sensor_id;sensor_type;location;lat;lon;timestamp;pressure;altitude;pressure_sealevel;temperature;humidity
73101;BME280;61288;53.446;-2.266;2023-02-24T00:01:45;101620.47;;;3.85;83.36
73101;BME280;61288;53.446;-2.266;2023-02-24T00:04:16;101620.44;;;3.74;85.10
73101;BME280;61288;53.446;-2.266;2023-02-24T00:06:44;101621.28;;;3.70;86.21
73101;BME280;61288;53.446;-2.266;2023-02-24T00:09:21;101622.16;;;3.65;87.27
73101;BME280;61288;53.446;-2.266;2023-02-24T00:11:56;101611.00;;;3.59;88.47
73101;BME280;61288;53.446;-2.266;2023-02-24T00:14:28;101614.41;;;3.58;88.92
73101;BME280;61288;53.446;-2.266;2023-02-24T00:16:55;101609.28;;;3.57;89.21
73101;BME280;61288;53.446;-2.266;2023-02-24T00:19:24;101600.75;;;3.55;90.44
73101;BME280;61288;53.446;-2.266;2023-02-24T00:21:54;101599.03;;;3.55;89.75
73101;BME280;61288;53.446;-2.266;2023-02-24T00:24:21;101596.47;;;3.54;90.93
73101;BME280;61288;53.446;-2.266;2023-02-24T00:26:54;101588.78;;;3.54;90.19
73101;BME280;61288;53.446;-2.266;2023-02-24T00:29:21;101586.22;;;3.54;91.09
73101;BME280;61288;53.446;-2.266;2023-02-24T00:31:56;101581.97;;;3.56;91.48
73101;BME280;61288;53.446;-2.266;2023-02-24T00:34:29;101581.09;;;3.54;92.85
73101;BME280;61288;53.446;-2.266;2023-02-24T00:36:55;101570.00;;;3.52;93.35
73101;BME280;61288;53.446;-2.266;2023-02-24T00:39:21;101561.44;;;3.53;93.50
73101;BME280;61288;53.446;-2.266;2023-02-24T00:41:55;101570.00;;;3.55;93.12
73101;BME280;61288;53.446;-2.266;2023-02-24T00:44:34;101564.03;;;3.56;93.38
73101;BME280;61288;53.446;-2.266;2023-02-24T00:47:02;101560.59;;;3.55;94.06
73101;BME280;61288;53.446;-2.266;2023-02-24T00:49:29;101552.06;;;3.55;94.41
73101;BME280;61288;53.446;-2.266;2023-02-24T00:51:56;101545.22;;;3.55;94.84
73101;BME280;61288;53.446;-2.266;2023-02-24T00:54:23;101545.22;;;3.57;95.45
73101;BME280;61288;53.446;-2.266;2023-02-24T00:56:52;101536.69;;;3.58;95.44
73101;BME280;61288;53.446;-2.266;2023-02-24T00:59:18;101540.09;;;3.60;95.43
73101;BME280;61288;53.446;-2.266;2023-02-24T01:01:45;101532.41;;;3.61;96.32
73101;BME280;61288;53.446;-2.266;2023-02-24T01:04:12;101534.13;;;3.64;96.33
73101;BME280;61288;53.446;-2.266;2023-02-24T01:06:43;101537.53;;;3.63;98.11
73101;BME280;61288;53.446;-2.266;2023-02-24T01:09:14;101518.78;;;3.66;98.19
73101;BME280;61288;53.446;-2.266;2023-02-24T01:11:42;101529.84;;;3.66;98.49
73101;BME280;61288;53.446;-2.266;2023-02-24T01:14:29;101519.63;;;3.71;98.92
73101;BME280;61288;53.446;-2.266;2023-02-24T01:17:02;101512.78;;;3.73;98.97
73101;BME280;61288;53.446;-2.266;2023-02-24T01:19:30;101511.09;;;3.75;99.35
73101;BME280;61288;53.446;-2.266;2023-02-24T01:22:00;101510.22;;;3.76;99.70
73101;BME280;61288;53.446;-2.266;2023-02-24T01:24:39;101497.41;;;3.79;99.72
73101;BME280;61288;53.446;-2.266;2023-02-24T01:27:12;101502.53;;;3.82;99.45
73101;BME280;61288;53.446;-2.266;2023-02-24T01:29:39;101500.81;;;3.84;99.30
73101;BME280;61288;53.446;-2.266;2023-02-24T01:32:06;101491.44;;;3.85;99.63
73101;BME280;61288;53.446;-2.266;2023-02-24T01:34:32;101492.28;;;3.87;99.60
73101;BME280;61288;53.446;-2.266;2023-02-24T01:36:59;101487.16;;;3.88;99.79
73101;BME280;61288;53.446;-2.266;2023-02-24T01:39:24;101476.88;;;3.92;99.79
73101;BME280;61288;53.446;-2.266;2023-02-24T01:41:50;101475.19;;;3.95;99.43
73101;BME280;61288;53.446;-2.266;2023-02-24T01:46:44;101464.09;;;3.98;100.00
73101;BME280;61288;53.446;-2.266;2023-02-24T01:49:23;101460.66;;;4.00;100.00
73101;BME280;61288;53.446;-2.266;2023-02-24T01:51:57;101452.09;;;4.01;100.00
73101;BME280;61288;53.446;-2.266;2023-02-24T01:54:33;101448.66;;;4.05;100.00
73101;BME280;61288;53.446;-2.266;2023-02-24T01:57:00;101444.41;;;4.09;100.00
73101;BME280;61288;53.446;-2.266;2023-02-24T01:59:29;101440.09;;;4.13;100.00
73101;BME280;61288;53.446;-2.266;2023-02-24T02:02:00;101440.13;;;4.19;100.00
73101;BME280;61288;53.446;-2.266;2023-02-24T02:04:34;101445.22;;;4.27;100.00
73101;BME280;61288;53.446;-2.266;2023-02-24T02:07:01;101446.06;;;4.29;100.00
73101;BME280;61288;53.446;-2.266;2023-02-24T02:09:26;101446.94;;;4.34;100.00
73101;BME280;61288;53.446;-2.266;2023-02-24T02:11:52;101435.78;;;4.38;100.00
73101;BME280;61288;53.446;-2.266;2023-02-24T02:14:20;101428.06;;;4.43;100.00
73101;BME280;61288;53.446;-2.266;2023-02-24T02:17:12;101421.22;;;4.46;100.00
73101;BME280;61288;53.446;-2.266;2023-02-24T02:23:18;101412.63;;;4.58;100.00
73101;BME280;61288;53.446;-2.266;2023-02-24T02:31:41;101401.41;;;4.80;100.00
73101;BME280;61288;53.446;-2.266;2023-02-24T02:34:13;101390.25;;;4.84;100.00
73101;BME280;61288;53.446;-2.266;2023-02-24T02:42:32;101400.41;;;5.04;100.00
73101;BME280;61288;53.446;-2.266;2023-02-24T02:47:47;101400.28;;;5.21;100.00
73101;BME280;61288;53.446;-2.266;2023-02-24T02:50:24;101390.81;;;5.28;100.00
73101;BME280;61288;53.446;-2.266;2023-02-24T02:53:31;101389.06;;;5.33;100.00
73101;BME280;61288;53.446;-2.266;2023-02-24T02:55:58;101380.47;;;5.39;99.78
73101;BME280;61288;53.446;-2.266;2023-02-24T02:58:28;101377.84;;;5.43;99.82
73101;BME280;61288;53.446;-2.266;2023-02-24T03:01:02;101382.13;;;5.46;99.56
73101;BME280;61288;53.446;-2.266;2023-02-24T03:03:35;101372.69;;;5.49;99.22
73101;BME280;61288;53.446;-2.266;2023-02-24T03:06:09;101369.22;;;5.54;99.32
73101;BME280;61288;53.446;-2.266;2023-02-24T03:08:39;101358.06;;;5.55;99.17
73101;BME280;61288;53.446;-2.266;2023-02-24T03:11:11;101362.34;;;5.56;99.17
73101;BME280;61288;53.446;-2.266;2023-02-24T03:13:42;101364.03;;;5.57;99.65
73101;BME280;61288;53.446;-2.266;2023-02-24T03:16:11;101354.59;;;5.59;100.00
73101;BME280;61288;53.446;-2.266;2023-02-24T03:18:42;101357.16;;;5.57;99.72
73101;BME280;61288;53.446;-2.266;2023-02-24T03:21:14;101346.03;;;5.57;100.00
73101;BME280;61288;53.446;-2.266;2023-02-24T03:23:51;101343.47;;;5.57;100.00
73101;BME280;61288;53.446;-2.266;2023-02-24T03:26:20;101335.75;;;5.55;100.00
73101;BME280;61288;53.446;-2.266;2023-02-24T03:31:24;101326.34;;;5.54;100.00
73101;BME280;61288;53.446;-2.266;2023-02-24T03:34:00;101326.34;;;5.54;100.00
73101;BME280;61288;53.446;-2.266;2023-02-24T03:36:32;101328.91;;;5.54;100.00
73101;BME280;61288;53.446;-2.266;2023-02-24T03:39:01;101328.09;;;5.54;100.00
73101;BME280;61288;53.446;-2.266;2023-02-24T03:41:34;101325.50;;;5.54;100.00
73101;BME280;61288;53.446;-2.266;2023-02-24T03:44:04;101318.63;;;5.54;100.00
73101;BME280;61288;53.446;-2.266;2023-02-24T03:46:33;101310.94;;;5.54;100.00
73101;BME280;61288;53.446;-2.266;2023-02-24T03:49:12;101309.19;;;5.56;100.00
73101;BME280;61288;53.446;-2.266;2023-02-24T03:51:42;101295.50;;;5.56;100.00
73101;BME280;61288;53.446;-2.266;2023-02-24T03:57:02;101288.66;;;5.55;100.00
73101;BME280;61288;53.446;-2.266;2023-02-24T04:02:33;101283.47;;;5.56;100.00
73101;BME280;61288;53.446;-2.266;2023-02-24T04:07:52;101280.03;;;5.59;100.00
73101;BME280;61288;53.446;-2.266;2023-02-24T04:10:28;101279.16;;;5.58;100.00
73101;BME280;61288;53.446;-2.266;2023-02-24T04:13:35;101273.16;;;5.61;100.00
73101;BME280;61288;53.446;-2.266;2023-02-24T04:16:20;101271.44;;;5.61;100.00
73101;BME280;61288;53.446;-2.266;2023-02-24T04:18:55;101265.41;;;5.62;100.00
73101;BME280;61288;53.446;-2.266;2023-02-24T04:21:26;101268.81;;;5.66;100.00
73101;BME280;61288;53.446;-2.266;2023-02-24T04:23:53;101263.69;;;5.66;100.00
73101;BME280;61288;53.446;-2.266;2023-02-24T04:26:21;101267.94;;;5.69;100.00
73101;BME280;61288;53.446;-2.266;2023-02-24T04:28:49;101251.63;;;5.71;100.00
73101;BME280;61288;53.446;-2.266;2023-02-24T04:31:17;101253.31;;;5.74;100.00
73101;BME280;61288;53.446;-2.266;2023-02-24T04:33:45;101245.56;;;5.75;100.00
73101;BME280;61288;53.446;-2.266;2023-02-24T04:36:20;101250.66;;;5.78;100.00
73101;BME280;61288;53.446;-2.266;2023-02-24T04:38:47;101238.66;;;5.81;100.00
73101;BME280;61288;53.446;-2.266;2023-02-24T04:41:13;101242.06;;;5.83;100.00
73101;BME280;61288;53.446;-2.266;2023-02-24T04:43:46;101227.44;;;5.86;100.00
73101;BME280;61288;53.446;-2.266;2023-02-24T04:46:12;101234.25;;;5.90;100.00
73101;BME280;61288;53.446;-2.266;2023-02-24T04:48:38;101233.41;;;5.90;100.00
73101;BME280;61288;53.446;-2.266;2023-02-24T04:51:03;101229.09;;;5.92;100.00
73101;BME280;61288;53.446;-2.266;2023-02-24T04:53:33;101226.47;;;5.95;100.00
73101;BME280;61288;53.446;-2.266;2023-02-24T04:56:04;101231.63;;;5.97;100.00
73101;BME280;61288;53.446;-2.266;2023-02-24T04:58:36;101221.28;;;5.98;100.00
73101;BME280;61288;53.446;-2.266;2023-02-24T05:01:07;101212.75;;;5.98;100.00
73101;BME280;61288;53.446;-2.266;2023-02-24T05:03:35;101209.31;;;5.97;100.00
73101;BME280;61288;53.446;-2.266;2023-02-24T05:06:01;101203.28;;;5.98;100.00
73101;BME280;61288;53.446;-2.266;2023-02-24T05:08:29;101204.97;;;5.99;100.00
73101;BME280;61288;53.446;-2.266;2023-02-24T05:10:55;101203.28;;;6.00;100.00
73101;BME280;61288;53.446;-2.266;2023-02-24T05:13:26;101205.84;;;6.00;100.00
73101;BME280;61288;53.446;-2.266;2023-02-24T05:16:03;101208.41;;;6.01;100.00
73101;BME280;61288;53.446;-2.266;2023-02-24T05:18:31;101205.84;;;6.03;100.00
73101;BME280;61288;53.446;-2.266;2023-02-24T05:21:07;101203.22;;;6.04;100.00
73101;BME280;61288;53.446;-2.266;2023-02-24T05:23:52;101204.94;;;6.05;100.00
73101;BME280;61288;53.446;-2.266;2023-02-24T05:26:19;101199.78;;;6.07;100.00
73101;BME280;61288;53.446;-2.266;2023-02-24T05:28:47;101198.03;;;6.07;100.00
73101;BME280;61288;53.446;-2.266;2023-02-24T05:34:03;101197.16;;;6.10;100.00
73101;BME280;61288;53.446;-2.266;2023-02-24T05:36:34;101188.56;;;6.10;100.00
73101;BME280;61288;53.446;-2.266;2023-02-24T05:39:03;101198.00;;;6.11;100.00
73101;BME280;61288;53.446;-2.266;2023-02-24T05:41:39;101197.13;;;6.12;100.00
73101;BME280;61288;53.446;-2.266;2023-02-24T05:44:17;101191.97;;;6.12;100.00
73101;BME280;61288;53.446;-2.266;2023-02-24T05:46:49;101192.84;;;6.12;100.00
73101;BME280;61288;53.446;-2.266;2023-02-24T05:49:22;101184.25;;;6.12;100.00
73101;BME280;61288;53.446;-2.266;2023-02-24T05:51:52;101190.28;;;6.11;100.00
73101;BME280;61288;53.446;-2.266;2023-02-24T05:54:26;101187.69;;;6.11;100.00
73101;BME280;61288;53.446;-2.266;2023-02-24T05:57:05;101188.53;;;6.13;100.00
73101;BME280;61288;53.446;-2.266;2023-02-24T05:59:32;101186.00;;;6.11;100.00
73101;BME280;61288;53.446;-2.266;2023-02-24T06:01:59;101185.13;;;6.11;100.00
73101;BME280;61288;53.446;-2.266;2023-02-24T06:04:26;101173.13;;;6.10;100.00
73101;BME280;61288;53.446;-2.266;2023-02-24T06:07:26;101174.88;;;6.09;100.00
73101;BME280;61288;53.446;-2.266;2023-02-24T06:09:54;101168.00;;;6.10;100.00
73101;BME280;61288;53.446;-2.266;2023-02-24T06:12:23;101163.72;;;6.10;100.00
73101;BME280;61288;53.446;-2.266;2023-02-24T06:14:56;101166.28;;;6.10;100.00
73101;BME280;61288;53.446;-2.266;2023-02-24T06:17:22;101150.84;;;6.10;100.00
73101;BME280;61288;53.446;-2.266;2023-02-24T06:19:51;101160.28;;;6.10;100.00
73101;BME280;61288;53.446;-2.266;2023-02-24T06:22:19;101154.25;;;6.11;100.00
73101;BME280;61288;53.446;-2.266;2023-02-24T06:24:45;101162.84;;;6.11;100.00
73101;BME280;61288;53.446;-2.266;2023-02-24T06:27:18;101151.66;;;6.14;100.00
73101;BME280;61288;53.446;-2.266;2023-02-24T06:29:47;101143.06;;;6.15;100.00
73101;BME280;61288;53.446;-2.266;2023-02-24T06:32:15;101141.31;;;6.17;100.00
73101;BME280;61288;53.446;-2.266;2023-02-24T06:34:41;101129.28;;;6.17;100.00
73101;BME280;61288;53.446;-2.266;2023-02-24T06:37:08;101134.44;;;6.19;100.00
73101;BME280;61288;53.446;-2.266;2023-02-24T06:39:35;101135.25;;;6.21;100.00
73101;BME280;61288;53.446;-2.266;2023-02-24T06:42:01;101131.81;;;6.22;100.00
73101;BME280;61288;53.446;-2.266;2023-02-24T06:44:34;101140.34;;;6.24;100.00
73101;BME280;61288;53.446;-2.266;2023-02-24T06:47:00;101133.44;;;6.26;100.00
73101;BME280;61288;53.446;-2.266;2023-02-24T06:49:26;101128.25;;;6.28;100.00
73101;BME280;61288;53.446;-2.266;2023-02-24T06:51:52;101129.97;;;6.29;100.00
73101;BME280;61288;53.446;-2.266;2023-02-24T06:54:24;101138.56;;;6.29;100.00
73101;BME280;61288;53.446;-2.266;2023-02-24T06:56:55;101135.97;;;6.31;100.00
73101;BME280;61288;53.446;-2.266;2023-02-24T06:59:23;101129.06;;;6.31;100.00
73101;BME280;61288;53.446;-2.266;2023-02-24T07:01:56;101129.06;;;6.33;100.00
73101;BME280;61288;53.446;-2.266;2023-02-24T07:04:23;101130.72;;;6.35;100.00
73101;BME280;61288;53.446;-2.266;2023-02-24T07:06:59;101135.88;;;6.37;100.00
73101;BME280;61288;53.446;-2.266;2023-02-24T07:09:28;101136.69;;;6.38;100.00
73101;BME280;61288;53.446;-2.266;2023-02-24T07:11:55;101140.97;;;6.39;100.00
73101;BME280;61288;53.446;-2.266;2023-02-24T07:14:26;101139.22;;;6.41;100.00
73101;BME280;61288;53.446;-2.266;2023-02-24T07:16:52;101136.66;;;6.41;100.00
73101;BME280;61288;53.446;-2.266;2023-02-24T07:19:21;101131.47;;;6.42;100.00
73101;BME280;61288;53.446;-2.266;2023-02-24T07:21:47;101138.28;;;6.45;100.00
73101;BME280;61288;53.446;-2.266;2023-02-24T07:24:19;101148.59;;;6.45;100.00
73101;BME280;61288;53.446;-2.266;2023-02-24T07:26:59;101151.13;;;6.48;100.00
73101;BME280;61288;53.446;-2.266;2023-02-24T07:29:26;101141.66;;;6.50;100.00
73101;BME280;61288;53.446;-2.266;2023-02-24T07:31:52;101149.34;;;6.53;100.00
73101;BME280;61288;53.446;-2.266;2023-02-24T07:34:23;101147.59;;;6.54;100.00
73101;BME280;61288;53.446;-2.266;2023-02-24T07:36:52;101144.13;;;6.56;100.00
73101;BME280;61288;53.446;-2.266;2023-02-24T07:39:22;101144.09;;;6.58;100.00
73101;BME280;61288;53.446;-2.266;2023-02-24T07:41:52;101156.06;;;6.60;100.00
73101;BME280;61288;53.446;-2.266;2023-02-24T07:44:21;101155.19;;;6.61;100.00
73101;BME280;61288;53.446;-2.266;2023-02-24T07:46:50;101145.72;;;6.62;100.00
73101;BME280;61288;53.446;-2.266;2023-02-24T07:49:19;101147.47;;;6.61;100.00
73101;BME280;61288;53.446;-2.266;2023-02-24T07:51:46;101151.69;;;6.65;100.00
73101;BME280;61288;53.446;-2.266;2023-02-24T07:54:21;101160.25;;;6.68;100.00
73101;BME280;61288;53.446;-2.266;2023-02-24T07:56:50;101155.91;;;6.70;100.00
73101;BME280;61288;53.446;-2.266;2023-02-24T07:59:31;101151.59;;;6.72;99.89
73101;BME280;61288;53.446;-2.266;2023-02-24T08:01:58;101155.84;;;6.74;99.84
73101;BME280;61288;53.446;-2.266;2023-02-24T08:04:27;101153.22;;;6.76;99.58
73101;BME280;61288;53.446;-2.266;2023-02-24T08:06:53;101158.31;;;6.81;99.65
73101;BME280;61288;53.446;-2.266;2023-02-24T08:09:31;101154.84;;;6.83;99.47
73101;BME280;61288;53.446;-2.266;2023-02-24T08:12:17;101149.69;;;6.83;99.07
73101;BME280;61288;53.446;-2.266;2023-02-24T08:14:46;101154.84;;;6.83;99.22
73101;BME280;61288;53.446;-2.266;2023-02-24T08:17:16;101153.91;;;6.86;99.08
73101;BME280;61288;53.446;-2.266;2023-02-24T08:19:46;101154.75;;;6.88;99.09
73101;BME280;61288;53.446;-2.266;2023-02-24T08:22:13;101149.56;;;6.89;98.67
73101;BME280;61288;53.446;-2.266;2023-02-24T08:24:55;101141.81;;;6.91;98.76
73101;BME280;61288;53.446;-2.266;2023-02-24T08:27:26;101143.44;;;6.95;98.66
73101;BME280;61288;53.446;-2.266;2023-02-24T08:29:55;101145.94;;;7.00;98.47
73101;BME280;61288;53.446;-2.266;2023-02-24T08:32:31;101145.00;;;7.04;98.50
73101;BME280;61288;53.446;-2.266;2023-02-24T08:35:10;101135.50;;;7.07;98.25
73101;BME280;61288;53.446;-2.266;2023-02-24T08:37:50;101134.50;;;7.16;97.85
73101;BME280;61288;53.446;-2.266;2023-02-24T08:40:17;101131.75;;;7.24;97.64
73101;BME280;61288;53.446;-2.266;2023-02-24T08:43:06;101128.13;;;7.34;97.45
73101;BME280;61288;53.446;-2.266;2023-02-24T08:48:25;101135.53;;;7.50;96.22
73101;BME280;61288;53.446;-2.266;2023-02-24T08:50:55;101130.16;;;7.59;96.34
73101;BME280;61288;53.446;-2.266;2023-02-24T08:53:22;101125.75;;;7.66;95.96
73101;BME280;61288;53.446;-2.266;2023-02-24T08:55:52;101126.63;;;7.65;95.20
73101;BME280;61288;53.446;-2.266;2023-02-24T08:58:18;101127.38;;;7.70;94.97
73101;BME280;61288;53.446;-2.266;2023-02-24T09:00:45;101122.13;;;7.73;94.68
73101;BME280;61288;53.446;-2.266;2023-02-24T09:03:15;101123.00;;;7.74;94.24
73101;BME280;61288;53.446;-2.266;2023-02-24T09:08:37;101128.03;;;7.80;93.76
73101;BME280;61288;53.446;-2.266;2023-02-24T09:11:06;101125.28;;;7.86;94.15
73101;BME280;61288;53.446;-2.266;2023-02-24T09:13:37;101122.66;;;7.89;93.94
73101;BME280;61288;53.446;-2.266;2023-02-24T09:16:08;101126.91;;;7.90;93.52
73101;BME280;61288;53.446;-2.266;2023-02-24T09:18:41;101127.69;;;7.95;93.64
73101;BME280;61288;53.446;-2.266;2023-02-24T09:21:10;101128.50;;;7.98;93.65
73101;BME280;61288;53.446;-2.266;2023-02-24T09:23:55;101137.94;;;7.99;93.03
73101;BME280;61288;53.446;-2.266;2023-02-24T09:26:20;101135.38;;;7.97;93.01
73101;BME280;61288;53.446;-2.266;2023-02-24T09:28:46;101127.72;;;7.94;92.60
73101;BME280;61288;53.446;-2.266;2023-02-24T09:31:20;101131.09;;;7.96;92.83
73101;BME280;61288;53.446;-2.266;2023-02-24T09:34:07;101131.03;;;7.99;92.51
73101;BME280;61288;53.446;-2.266;2023-02-24T09:36:35;101125.78;;;8.02;92.71
73101;BME280;61288;53.446;-2.266;2023-02-24T09:39:09;101120.56;;;8.05;92.25
73101;BME280;61288;53.446;-2.266;2023-02-24T09:44:47;101122.13;;;8.13;91.04
73101;BME280;61288;53.446;-2.266;2023-02-24T09:50:25;101119.19;;;8.27;91.71
73101;BME280;61288;53.446;-2.266;2023-02-24T09:53:15;101113.06;;;8.32;91.35
73101;BME280;61288;53.446;-2.266;2023-02-24T09:55:50;101120.63;;;8.38;91.32
73101;BME280;61288;53.446;-2.266;2023-02-24T09:58:38;101111.97;;;8.41;90.51
73101;BME280;61288;53.446;-2.266;2023-02-24T10:03:53;101105.84;;;8.45;90.46
73101;BME280;61288;53.446;-2.266;2023-02-24T10:06:40;101103.13;;;8.53;90.09
73101;BME280;61288;53.446;-2.266;2023-02-24T10:09:28;101108.75;;;8.67;89.64
73101;BME280;61288;53.446;-2.266;2023-02-24T10:12:02;101111.19;;;8.74;89.27
73101;BME280;61288;53.446;-2.266;2023-02-24T10:17:16;101105.28;;;8.69;88.12
73101;BME280;61288;53.446;-2.266;2023-02-24T10:25:37;101102.63;;;8.72;88.82
73101;BME280;61288;53.446;-2.266;2023-02-24T10:28:14;101105.13;;;8.75;88.94
73101;BME280;61288;53.446;-2.266;2023-02-24T10:30:55;101101.50;;;8.82;89.00
73101;BME280;61288;53.446;-2.266;2023-02-24T10:33:56;101101.38;;;8.87;89.01
73101;BME280;61288;53.446;-2.266;2023-02-24T10:36:25;101103.03;;;8.89;89.13
73101;BME280;61288;53.446;-2.266;2023-02-24T10:39:20;101104.56;;;8.96;88.48
73101;BME280;61288;53.446;-2.266;2023-02-24T10:42:02;101094.84;;;9.05;88.35
73101;BME280;61288;53.446;-2.266;2023-02-24T10:44:45;101090.34;;;9.12;87.64
73101;BME280;61288;53.446;-2.266;2023-02-24T10:47:26;101099.69;;;9.17;86.17
73101;BME280;61288;53.446;-2.266;2023-02-24T10:50:02;101097.91;;;9.19;85.72
73101;BME280;61288;53.446;-2.266;2023-02-24T10:52:38;101098.66;;;9.23;84.81
73101;BME280;61288;53.446;-2.266;2023-02-24T10:55:33;101101.81;;;9.33;84.49
73101;BME280;61288;53.446;-2.266;2023-02-24T11:00:48;101104.81;;;9.49;84.03
73101;BME280;61288;53.446;-2.266;2023-02-24T11:03:27;101103.13;;;9.48;83.24
73101;BME280;61288;53.446;-2.266;2023-02-24T11:06:21;101108.16;;;9.52;83.64
73101;BME280;61288;53.446;-2.266;2023-02-24T11:09:20;101104.59;;;9.57;83.95
73101;BME280;61288;53.446;-2.266;2023-02-24T11:12:04;101102.09;;;9.53;83.63
73101;BME280;61288;53.446;-2.266;2023-02-24T11:14:54;101096.97;;;9.52;83.13
73101;BME280;61288;53.446;-2.266;2023-02-24T11:17:57;101102.59;;;9.36;82.19
73101;BME280;61288;53.446;-2.266;2023-02-24T11:20:33;101099.34;;;9.30;82.27
73101;BME280;61288;53.446;-2.266;2023-02-24T11:23:04;101106.38;;;9.24;83.48
73101;BME280;61288;53.446;-2.266;2023-02-24T11:25:40;101094.28;;;9.25;84.29
73101;BME280;61288;53.446;-2.266;2023-02-24T11:31:09;101099.41;;;9.27;84.39
73101;BME280;61288;53.446;-2.266;2023-02-24T11:41:59;101089.97;;;9.25;80.87
73101;BME280;61288;53.446;-2.266;2023-02-24T11:44:31;101090.75;;;9.29;80.90
73101;BME280;61288;53.446;-2.266;2023-02-24T11:47:12;101089.75;;;9.33;81.38
73101;BME280;61288;53.446;-2.266;2023-02-24T11:49:45;101093.94;;;9.37;81.24
73101;BME280;61288;53.446;-2.266;2023-02-24T11:52:44;101086.19;;;9.37;80.41
73101;BME280;61288;53.446;-2.266;2023-02-24T11:55:28;101094.97;;;9.32;80.25
73101;BME280;61288;53.446;-2.266;2023-02-24T11:58:34;101090.91;;;9.23;81.91
73101;BME280;61288;53.446;-2.266;2023-02-24T12:01:05;101086.28;;;9.03;82.27
73101;BME280;61288;53.446;-2.266;2023-02-24T12:09:19;101089.66;;;9.06;83.42
73101;BME280;61288;53.446;-2.266;2023-02-24T12:11:50;101085.31;;;9.07;84.02
73101;BME280;61288;53.446;-2.266;2023-02-24T12:14:35;101083.75;;;9.01;82.71
73101;BME280;61288;53.446;-2.266;2023-02-24T12:17:25;101077.81;;;8.98;82.62
73101;BME280;61288;53.446;-2.266;2023-02-24T12:22:45;101073.88;;;8.84;84.57
73101;BME280;61288;53.446;-2.266;2023-02-24T12:25:13;101070.50;;;8.82;84.94
73101;BME280;61288;53.446;-2.266;2023-02-24T12:27:49;101076.56;;;8.81;84.62
73101;BME280;61288;53.446;-2.266;2023-02-24T12:39:17;101074.03;;;8.78;80.44
73101;BME280;61288;53.446;-2.266;2023-02-24T12:53:25;101064.13;;;8.94;78.22
73101;BME280;61288;53.446;-2.266;2023-02-24T12:56:00;101067.53;;;8.96;78.42
73101;BME280;61288;53.446;-2.266;2023-02-24T12:58:35;101078.78;;;8.93;77.79
73101;BME280;61288;53.446;-2.266;2023-02-24T13:02:08;101073.00;;;8.85;75.25
73101;BME280;61288;53.446;-2.266;2023-02-24T13:09:45;101066.56;;;9.00;74.15
73101;BME280;61288;53.446;-2.266;2023-02-24T13:12:25;101076.38;;;9.19;74.29
73101;BME280;61288;53.446;-2.266;2023-02-24T13:14:52;101066.59;;;9.29;74.69
73101;BME280;61288;53.446;-2.266;2023-02-24T13:17:23;101059.34;;;9.42;74.77
73101;BME280;61288;53.446;-2.266;2023-02-24T13:19:52;101060.00;;;9.48;72.13
73101;BME280;61288;53.446;-2.266;2023-02-24T13:22:29;101059.28;;;9.72;70.90
73101;BME280;61288;53.446;-2.266;2023-02-24T13:27:35;101057.56;;;9.99;70.22
73101;BME280;61288;53.446;-2.266;2023-02-24T13:35:41;101056.03;;;9.65;69.27
73101;BME280;61288;53.446;-2.266;2023-02-24T13:38:35;101066.53;;;9.89;67.65
73101;BME280;61288;53.446;-2.266;2023-02-24T13:58:05;101047.16;;;10.78;62.20
73101;BME280;61288;53.446;-2.266;2023-02-24T14:03:24;101051.59;;;10.51;62.64
73101;BME280;61288;53.446;-2.266;2023-02-24T14:05:52;101050.03;;;10.45;64.76
73101;BME280;61288;53.446;-2.266;2023-02-24T14:08:46;101051.72;;;10.46;60.44
73101;BME280;61288;53.446;-2.266;2023-02-24T14:11:12;101057.34;;;10.32;61.00
73101;BME280;61288;53.446;-2.266;2023-02-24T14:13:44;101058.03;;;10.10;61.47
73101;BME280;61288;53.446;-2.266;2023-02-24T14:16:20;101065.50;;;9.94;59.31
73101;BME280;61288;53.446;-2.266;2023-02-24T14:18:53;101065.06;;;9.80;57.74
73101;BME280;61288;53.446;-2.266;2023-02-24T14:21:21;101056.66;;;9.73;59.77
73101;BME280;61288;53.446;-2.266;2023-02-24T14:24:01;101062.13;;;9.64;59.18
73101;BME280;61288;53.446;-2.266;2023-02-24T14:26:40;101058.44;;;9.71;59.53
73101;BME280;61288;53.446;-2.266;2023-02-24T14:29:07;101061.91;;;9.70;58.72
73101;BME280;61288;53.446;-2.266;2023-02-24T14:31:34;101069.06;;;9.62;59.36
73101;BME280;61288;53.446;-2.266;2023-02-24T14:34:01;101063.88;;;9.63;57.20
73101;BME280;61288;53.446;-2.266;2023-02-24T14:36:34;101066.53;;;9.60;58.17
73101;BME280;61288;53.446;-2.266;2023-02-24T14:39:07;101064.81;;;9.59;60.57
73101;BME280;61288;53.446;-2.266;2023-02-24T14:41:34;101058.22;;;9.50;57.08
73101;BME280;61288;53.446;-2.266;2023-02-24T14:44:33;101056.69;;;9.43;57.84
73101;BME280;61288;53.446;-2.266;2023-02-24T14:47:04;101070.00;;;9.59;57.54
73101;BME280;61288;53.446;-2.266;2023-02-24T14:49:34;101068.06;;;9.67;57.60
73101;BME280;61288;53.446;-2.266;2023-02-24T14:54:59;101068.34;;;10.14;59.58
73101;BME280;61288;53.446;-2.266;2023-02-24T15:00:21;101068.22;;;10.69;56.86
73101;BME280;61288;53.446;-2.266;2023-02-24T15:03:17;101072.44;;;10.72;58.04
73101;BME280;61288;53.446;-2.266;2023-02-24T15:05:48;101071.41;;;10.52;54.38
73101;BME280;61288;53.446;-2.266;2023-02-24T15:10:50;101076.72;;;9.93;55.21
73101;BME280;61288;53.446;-2.266;2023-02-24T15:13:34;101075.53;;;9.77;54.18
73101;BME280;61288;53.446;-2.266;2023-02-24T15:19:23;101091.06;;;9.47;55.86
73101;BME280;61288;53.446;-2.266;2023-02-24T15:21:50;101086.41;;;9.58;56.62
73101;BME280;61288;53.446;-2.266;2023-02-24T15:24:24;101096.16;;;9.50;56.35
73101;BME280;61288;53.446;-2.266;2023-02-24T15:26:56;101092.38;;;9.62;57.87
73101;BME280;61288;53.446;-2.266;2023-02-24T15:29:25;101086.09;;;9.69;56.54
73101;BME280;61288;53.446;-2.266;2023-02-24T15:31:53;101090.03;;;9.82;55.94
73101;BME280;61288;53.446;-2.266;2023-02-24T15:34:22;101081.63;;;9.74;56.31
73101;BME280;61288;53.446;-2.266;2023-02-24T15:36:51;101090.66;;;9.61;56.35
73101;BME280;61288;53.446;-2.266;2023-02-24T15:39:22;101086.56;;;9.53;56.10
73101;BME280;61288;53.446;-2.266;2023-02-24T15:41:50;101081.13;;;9.63;55.70